Racecast

25th Annual Woodbridge Cross Country Classic

Woodbridge High School · 4828m · Boys · Race 14 D3 Junior · 2005-09-17 · CA

Course difficulty: +0.019

Race-day weather: 67°F · wind 13 mph · humidity 66%

View full meet →

Team scores

Place Team Points 12345 67
1 Foothill (Santa Ana) (CA) 108 2 5 14 15 73 122 140
2 Laguna Hills (CA) 112 6 10 13 18 66 77 82
3 El Rancho (CA) 140 8 29 30 33 39 80 91
4 Cajon (CA) 154 4 21 31 47 51 53 84
5 Torrance (CA) 182 7 9 37 62 67 71 72
6 Vista Murrieta (CA) 200 1 3 36 43 115
7 South Torrance (CA) 218 22 28 35 64 69 76 78
8 Santa Monica (CA) 222 20 23 42 57 79 85 111
9 Valley View (WA) 254 17 25 34 63 138
10 Diamond Bar (CA) 300 40 49 58 65 88 93 107
11 Perris (CA) 314 45 46 48 86 89 114 124
12 Ramona (Riverside) (CA) 327 19 38 54 83 132 134 145
13 Chino (CA) 342 12 24 74 112 119 144
14 San Gorgonio (CA) 369 11 41 95 110 113 117 120
15 Apple Valley (CA) 384 26 59 90 104 106 131
16 Temple City (CA) 390 16 60 92 103 118 133 150
17 University Irvine (CA) 408 68 70 81 87 101 108 116
18 Fontana (CA) 424 32 56 94 99 142
19 Covina (CA) 472 50 52 102 130 136 141
20 Centennial (Corona) (CA) 491 55 75 105 109 146
21 Damien (CA) 549 44 98 125 137 143 148
22 Irvine (CA) 554 61 100 123 128 139
23 El Dorado (CA) 575 27 121 127 147 149
24 Pacifica (Garden Grove) (CA) 586 96 97 126 129 135

As scored by the meet.

Results

Place Athlete Grade School Time Rating Points
1 Eric Malain 11 Enterprise (OR) 1 15:30 PR 133.0
2 Josh Acosta 11 Paloma Valley (CA) 1 15:43 PR 131.1
3 Alan Lloyd 11 Burroughs (Ridgecrest) (CA) 1 15:48 PR 130.4
4 Steve Calise 11 San Pedro (CA) 1 15:51 130.0
5 John Matson 11 Vista Murrieta (CA) 1 15:56 PR 129.3 1
6 Roman Pascual 11 Century (MD) 1 16:13 PR 127.1
7 Stephen Palazzo 11 Foothill (Santa Ana) (CA) 1 16:14 PR 126.9 2
8 Alan Shelton 11 Vista Murrieta (CA) 2 16:24 PR 125.7 3
9 Chris Cordova 11 Cajon (CA) 1 16:26 PR 125.4 4
10 Ian Secor 11 Foothill (Santa Ana) (CA) 2 16:31 124.8 5
11 Michael Farnham 11 Laguna Hills (CA) 1 16:32 PR 124.7 6
12 Andre Valdivia 11 Century (MD) 2 16:37 PR 124.0
13 Eugenio Cortez 12 Indio (CA) 1 16:38 PR 123.9
14 Aaron Brown 11 Torrance (CA) 1 16:39 PR 123.8 7
15 Ervin Romo 11 El Rancho (CA) 1 16:40 PR 123.7 8
16 Wyatt Kessler 12 Burbank (CA) 1 16:44 PR 123.2
17 Dennis Momohara 11 Torrance (CA) 2 16:46 PR 122.9 9
18 Robert Gray 11 Laguna Hills (CA) 2 16:47 PR 122.8 10
19 Lee Knowlton 11 San Gorgonio (CA) 1 16:49 PR 122.6 11
20 Julio Tapia 11 Chino (CA) 1 16:52 PR 122.2 12
21 Bryce Healy 11 Laguna Hills (CA) 3 16:53 PR 122.1 13
22 David Ferreira 11 Foothill (Santa Ana) (CA) 3 16:54 PR 121.9 14
23 Austin Williamson 12 Foothill (Santa Ana) (CA) 4 16:56 PR 121.7 15
24 George Wang 11 Temple City (CA) 1 16:57 PR 121.6 16
25 Kelly Crawford 11 San Pedro (CA) 2 16:57 PR 121.6
26 Chris Merchant 12 Elsinore (CA) 1 16:58 PR 121.5
27 Dale Nestor 11 Valley View (WA) 1 16:59 PR 121.3 17
28 Drew Kemp 12 Laguna Hills (CA) 4 16:59 PR 121.3 18
29 Saul Fierro 12 Ramona (Riverside) (CA) 1 17:00 PR 121.2 19
30 Julio Alba 12 Santa Monica (CA) 1 17:05 PR 120.6 20
31 Albert Diaz 11 Cajon (CA) 2 17:06 PR 120.5 21
32 Erik Reinertsen 12 South Torrance (CA) 1 17:07 PR 120.4 22
33 Wyles Vance 12 Santa Monica (CA) 2 17:08 PR 120.3 23
34 Garrett McGuire 12 Chino (CA) 2 17:08 PR 120.3 24
35 AJ Martinez 12 Valley View (WA) 2 17:11 PR 119.9 25
36 Jarrod Clark 12 Apple Valley (CA) 1 17:12 PR 119.8 26
37 Chris Franco 11 San Pedro (CA) 3 17:14 PR 119.6
38 Reyneir Chavez 11 San Jacinto (CA) 1 17:15 PR 119.5
39 Jonathan LeShana 12 El Dorado (CA) 1 17:16 PR 119.3 27
40 Chris Knox 11 South Torrance (CA) 2 17:17 PR 119.2 28
41 Joseph Huizar 12 El Rancho (CA) 2 17:18 PR 119.1 29
42 Mauricio Samayoa 11 El Rancho (CA) 3 17:18 PR 119.1 30
43 Jaime Vaca 11 Hawthorne (CA) 1 17:19 PR 119.0
44 Joey Ybarra 11 Cajon (CA) 3 17:20 PR 118.9 31
45 Jeff Gomez 12 San Jacinto (CA) 2 17:21 PR 118.8
46 Jason Kil 12 Palisades Charter (CA) 1 17:23 PR 118.6
47 Diego Rizo 12 Fontana (CA) 1 17:27 PR 118.1 32
48 Carlos Joya 12 El Rancho (CA) 4 17:28 PR 118.0 33
49 John Ng 11 Valley View (WA) 3 17:28 PR 118.0 34
50 Clifford Wang 11 South Torrance (CA) 3 17:29 PR 117.9 35
51 Andres Lopez 12 Vista Murrieta (CA) 3 17:30 PR 117.8 36
52 Patrick Treacy 11 Torrance (CA) 3 17:31 PR 117.7 37
53 Daniel Galvan 12 Ramona (Riverside) (CA) 2 17:34 PR 117.3 38
54 Anthony Cachu 11 El Rancho (CA) 5 17:34 PR 117.3 39
55 Nick Infanti 11 Diamond Bar (CA) 1 17:34 PR 117.3 40
56 Victor Perez 12 San Gorgonio (CA) 2 17:38 PR 116.9 41
57 Max Einstein 12 Santa Monica (CA) 3 17:39 PR 116.8 42
58 James Gonzales 11 Vista Murrieta (CA) 4 17:41 PR 116.5 43
59 Troy Hoffman 12 Damien (CA) 1 17:41 PR 116.5 44
60 Alex Vasquez - Perris (CA) 1 17:42 PR 116.4 45
61 Adan Pullido 11 Perris (CA) 2 17:42 PR 116.4 46
62 David Owens 11 Cajon (CA) 4 17:43 PR 116.3 47
63 Andrew Harris 12 Burbank (CA) 2 17:43 PR 116.3
64 Luis Pullido 11 Perris (CA) 3 17:44 PR 116.2 48
65 Andrew Bell 12 Diamond Bar (CA) 2 17:45 PR 116.1 49
66 Daniel Ramos 11 Century (MD) 3 17:45 PR 116.1
67 Sergio Leano 11 Covina (CA) 1 17:45 PR 116.1 50
68 Patrick St. Louis 11 Cajon (CA) 5 17:46 PR 116.0 51
69 Kyle Draper 11 Calabasas (CA) 1 17:46 PR 116.0
70 Richie Elkin 11 Covina (CA) 2 17:47 PR 115.9 52
71 Elliott Holt 11 Cajon (CA) 6 17:48 PR 115.8 53
72 Cody VandenRaadt 11 Ramona (Riverside) (CA) 3 17:50 PR 115.6 54
73 Fernando Gonzalez 12 Centennial (Corona) (CA) 1 17:51 PR 115.4 55
74 Jose Gomez 12 Fontana (CA) 2 17:51 PR 115.4 56
75 Max Benjamin 12 Santa Monica (CA) 4 17:52 PR 115.3 57
76 Binh Nguyen 12 Diamond Bar (CA) 3 17:53 PR 115.2 58
77 Giovani Chavez 11 Apple Valley (CA) 2 17:53 PR 115.2 59
78 Richard Weinert 11 Servite (CA) 1 17:54 PR 115.1
79 Adrian Chiang 11 Temple City (CA) 2 17:55 PR 115.0 60
80 Sean Corbett 11 Sonora (La Habra) (CA) 1 17:55 PR 115.0
81 Aaron Huang 12 Irvine (CA) 1 17:57 PR 114.8 61
82 Russell Salinger 11 Torrance (CA) 4 17:58 PR 114.7 62
83 Remo Colindres 12 Valley View (WA) 4 17:59 PR 114.6 63
84 Eric Garcia 12 Indio (CA) 2 18:00 PR 114.5
85 Ben Baker 10 South Torrance (CA) 4 18:10 PR 113.4 64
86 Michael Long 12 Diamond Bar (CA) 4 18:11 PR 113.3 65
87 Daniel Coppola 12 California (Whittier) (CA) 1 18:11 PR 113.3
88 Mike Ma 11 Tustin (CA) 1 18:11 PR 113.3
89 Kenny Stapleton 12 Laguna Hills (CA) 5 18:12 PR 113.2 66
90 Aaron Rivera 12 Indio (CA) 3 18:13 PR 113.1
91 Adam Steiber 12 Torrance (CA) 5 18:18 PR 112.6 67
92 Robbie Grant 11 University Irvine (CA) 1 18:19 PR 112.5 68
93 Ricky Anzai 12 South Torrance (CA) 5 18:23 112.1 69
94 Andrew Mercer 12 Diamond Ranch (CA) 1 18:25 PR 111.9
95 Eugene Chung 11 University Irvine (CA) 2 18:26 PR 111.8 70
96 Eric Son 12 Torrance (CA) 6 18:27 PR 111.7 71
97 Aaron Nunez 11 San Pedro (CA) 4 18:27 PR 111.7
98 Kevin Matsuoka 12 Torrance (CA) 7 18:28 PR 111.6 72
99 Frank Sandoval 12 Foothill (Santa Ana) (CA) 5 18:28 PR 111.6 73
100 Daniel Hooper 12 Chino (CA) 3 18:30 PR 111.4 74
101 Martin Tellez 12 Tustin (CA) 2 18:30 PR 111.4
102 Hondo Espino 11 Sonora (La Habra) (CA) 2 18:30 PR 111.4
103 Zachary Rodriguez 12 Centennial (Corona) (CA) 2 18:31 PR 111.3 75
104 Andrew Hashimoto 12 South Torrance (CA) 6 18:33 PR 111.1 76
105 Irving Moreno 11 Laguna Hills (CA) 6 18:34 PR 111.0 77
106 Patrick O'Rourke 12 South Torrance (CA) 7 18:37 PR 110.7 78
107 Matt Brennen 11 Del Campo (CA) 1 18:40 PR 110.4
108 Drew Pomatti 12 Santa Monica (CA) 5 18:44 PR 110.0 79
109 Alvaro Romero 12 El Rancho (CA) 6 18:45 PR 109.9 80
110 Matthew Gargus 11 University Irvine (CA) 3 18:46 PR 109.8 81
111 Nathan Welsh 11 Laguna Hills (CA) 7 18:46 PR 109.8 82
112 Armando Rodriguez 12 Century (MD) 4 18:48 PR 109.6
113 Carlos Hernandez 11 Ramona (Riverside) (CA) 4 18:49 PR 109.5 83
114 Dean Navarro 11 Cajon (CA) 7 18:50 PR 109.4 84
115 Gary Davis 11 Elsinore (CA) 2 18:51 PR 109.3
116 Ryan Lin 11 Santa Monica (CA) 6 18:52 PR 109.2 85
117 Michael Padilla 11 Perris (CA) 4 18:53 PR 109.1 86
118 Stratton Constantinides 11 Calabasas (CA) 2 18:54 PR 109.0
119 William Montmaneix 12 University Irvine (CA) 4 18:55 PR 108.9 87
120 Elliot Young 11 Torrance (CA) 8 18:55 PR 108.9
121 Alfredo Santana 11 Burroughs (Ridgecrest) (CA) 2 18:57 PR 108.8
122 Charles Tamae 12 Torrance (CA) 9 18:58 PR 108.7
123 Antonio Ramos 11 Palm Springs (CA) 1 18:59 PR 108.6
124 Adam Hui 11 Diamond Bar (CA) 5 19:00 PR 108.5 88
125 Elias Cedano 11 Perris (CA) 5 19:02 PR 108.3 89
126 Nick Pignotti 11 Apple Valley (CA) 3 19:05 PR 108.0 90
127 Edwin Sosa 12 El Rancho (CA) 7 19:06 PR 107.9 91
128 Nathan Ziadie 12 Paloma Valley (CA) 2 19:07 PR 107.8
129 Patrick Qian 11 Temple City (CA) 3 19:07 PR 107.8 92
130 Stephen Espinosa 12 Diamond Bar (CA) 6 19:09 PR 107.6 93
131 Francisco Hernandez 12 Fontana (CA) 3 19:10 PR 107.5 94
132 Remi Aldachester 12 San Gorgonio (CA) 3 19:11 PR 107.4 95
133 Kirk Sundstrom 11 Cajon (CA) 8 19:12 PR 107.3
134 Alex Westfall 12 Pacifica (Garden Grove) (CA) 1 19:15 PR 107.1 96
135 Jared Getzlaff 11 Pacifica (Garden Grove) (CA) 2 19:16 PR 107.0 97
136 Randy Lew 11 South Torrance (CA) 8 19:20 PR 106.6
137 Rick Bout 11 Damien (CA) 2 19:21 PR 106.5 98
138 Carlos Beecher 12 Fontana (CA) 4 19:24 PR 106.2 99
139 Bashir Mohamed 11 Irvine (CA) 2 19:25 PR 106.1 100
140 Christopher Sanchez 11 University Irvine (CA) 5 19:26 PR 106.1 101
141 Jon Eggan 11 Covina (CA) 3 19:27 PR 106.0 102
142 Andy Su 11 Temple City (CA) 4 19:28 PR 105.9 103
143 Trevor Barnes 12 Burroughs (Ridgecrest) (CA) 3 19:30 PR 105.7
144 Brian Brown 11 Apple Valley (CA) 4 19:33 PR 105.4 104
145 Joel Negrete 12 Centennial (Corona) (CA) 3 19:34 PR 105.3 105
146 Jon Hudson 11 Apple Valley (CA) 5 19:35 PR 105.2 106
147 Bennett Yuan 11 Diamond Bar (CA) 7 19:37 PR 105.1 107
148 Jerry Porter 11 Harvard-Westlake (CA) 1 19:38 PR 105.0
149 Kazan Braeckman 11 University Irvine (CA) 6 19:40 PR 104.8 108
150 Luis Perez 12 Centennial (Corona) (CA) 4 19:41 PR 104.7 109
151 Roberto Lopez 12 San Gorgonio (CA) 4 19:46 PR 104.3 110
152 Omid Adami 12 Santa Monica (CA) 7 19:47 PR 104.2 111
153 Ben Zamora 11 Chino (CA) 4 19:49 PR 104.0 112
154 Gian Cara 12 San Gorgonio (CA) 5 19:49 PR 104.0 113
155 Matt Torres 12 Valley View (WA) 5 19:50 PR 103.9 114
156 Micheal Rodriguez 9 Perris (CA) 6 19:51 PR 103.8 115
157 Jesse Nabel 12 Santa Monica (CA) 8 19:53 PR 103.7
158 Ryan Raouf 11 Santa Monica (CA) 9 19:54 PR 103.6
159 Harry Hurtado 12 Vista Murrieta (CA) 5 19:57 PR 103.3 116
160 Alexander Fiek 11 University Irvine (CA) 7 19:57 PR 103.3 117
161 Bingchow Chen 11 San Gorgonio (CA) 6 19:58 PR 103.2 118
162 Sean Mizokami 12 Torrance (CA) 10 20:01 PR 103.0
163 Allen Dang 11 Tustin (CA) 3 20:03 PR 102.8
164 Ryan Butt 12 Torrance (CA) 11 20:07 102.4
165 Chris Tang 12 Temple City (CA) 5 20:08 PR 102.4 119
166 John Aldecoa 12 Chino (CA) 5 20:09 PR 102.3 120
167 Robin Davis 11 Del Campo (CA) 2 20:11 PR 102.1
168 Christian Terriquez 12 San Gorgonio (CA) 7 20:12 PR 102.0 121
169 Kyle Zimmermann 12 El Dorado (CA) 2 20:13 PR 101.9 122
170 John Kincannon 11 Foothill (Santa Ana) (CA) 6 20:15 101.8 123
171 Richard Miller 12 Irvine (CA) 3 20:19 PR 101.4 124
172 Adam Guitierez 11 Perris (CA) 7 20:22 PR 101.2 125
173 Brad Garcia 12 Damien (CA) 3 20:26 PR 100.9 126
174 John Dooling - Pacifica (Garden Grove) (CA) 3 20:26 PR 100.9 127
175 John Powers 11 El Dorado (CA) 3 20:27 PR 100.8 128
176 Jonathan Kim 12 University Irvine (CA) 8 20:28 PR 100.7
177 Garret Blanchette 10 Palm Springs (CA) 2 20:28 PR 100.7
178 Yuki Fujita 11 Laguna Hills (CA) 8 20:29 PR 100.6
179 David Nguyen 12 Irvine (CA) 4 20:31 PR 100.4 129
180 Adrian Rico 11 California (Whittier) (CA) 2 20:31 PR 100.4
181 Jason Haase 12 Palisades Charter (CA) 2 20:35 PR 100.1
182 Kieran Sharma 12 Pacifica (Garden Grove) (CA) 4 20:41 PR 99.6 130
183 Michael Nguyen 12 Covina (CA) 4 20:41 PR 99.6 131
184 Samuel Barke 12 Torrance (CA) 12 20:47 PR 99.2
185 Casey Yoneyama 11 South Torrance (CA) 9 20:51 PR 98.8
186 Andrew Solter 11 Santa Monica (CA) 10 20:52 PR 98.8
187 Robert Scheall-Johnson 12 University Irvine (CA) 9 20:53 PR 98.7
188 Antonio Gonzalez 11 University Irvine (CA) 10 20:53 PR 98.7
189 Sean Tang 11 University Irvine (CA) 11 21:00 PR 98.1
190 Mike Bromberg 11 Santa Monica (CA) 11 21:02 PR 98.0
191 Justin Bauer 9 Apple Valley (CA) 6 21:06 PR 97.7 132
192 Jeff Mendiola 11 Servite (CA) 2 21:09 PR 97.4
193 Mike Pasag Jr. 11 Ramona (Riverside) (CA) 5 21:10 PR 97.4 133
194 Jimmy Beigel 12 South Torrance (CA) 10 21:14 PR 97.1
195 Jimmy Duong 11 Temple City (CA) 6 21:15 PR 97.0 134
196 Scott Runyon 11 Laguna Hills (CA) 9 21:16 PR 96.9
197 Patrick Meeks 12 Ramona (Riverside) (CA) 6 21:18 PR 96.8 135
198 Jacob Freimer 12 Santa Monica (CA) 12 21:18 PR 96.8
199 David Kwon 11 University Irvine (CA) 12 21:20 PR 96.6
200 Maxwell Gilmore 12 University Irvine (CA) 13 21:21 PR 96.5
201 Bryan Norton - Pacifica (Garden Grove) (CA) 5 21:23 PR 96.4 136
202 Eric Baba 11 Torrance (CA) 13 21:24 PR 96.3
203 Matt Dominguez 11 Covina (CA) 5 21:29 PR 95.9 137
204 Sean Mahsoul 11 Santa Monica (CA) 13 21:35 PR 95.5
205 Jacob Carrasco 12 Diamond Ranch (CA) 2 21:37 PR 95.3
206 Mark Zolotoff 11 Damien (CA) 4 21:39 PR 95.2 138
207 Jesse Moreno 11 Valley View (WA) 6 21:45 PR 94.8 139
208 Long Huynh 11 San Gorgonio (CA) 8 21:45 PR 94.8
209 Jon Tanaka 11 Santa Monica (CA) 14 21:48 PR 94.5
210 Pierre Samson 12 Irvine (CA) 5 21:50 PR 94.4 140
211 Luis Cardosa 11 Laguna Hills (CA) 10 21:53 PR 94.2
212 Jonathan Grothe 12 Diamond Ranch (CA) 3 21:54 PR 94.1
213 Nick Antrilli 12 Santa Monica (CA) 15 21:56 PR 94.0
214 Unknown 11 Foothill (Santa Ana) (CA) 7 22:04 PR 101.4 141
215 Nick Steele 11 Servite (CA) 3 22:15 PR 92.6
216 Roberto Coppel 11 Covina (CA) 6 22:16 PR 92.6 142
217 Kevin Palmer 11 Fontana (CA) 5 22:24 PR 92.0 143
218 Jose Perez - Perris (CA) 8 22:32 PR 91.5
219 Raphael Morales 12 Kaiser (CA) 1 22:34 PR 91.3
220 Sung Choi 11 South Torrance (CA) 11 22:39 PR 91.0
221 Raul Perez 12 Kaiser (CA) 2 22:54 PR 90.0
222 Tommy Hyland 11 Damien (CA) 5 22:59 PR 89.7 144
223 Danruo Liu 12 University Irvine (CA) 14 23:12 PR 88.8
224 Earl Nickerson 11 Chino (CA) 6 23:16 PR 88.6 145
225 Eric Tsay 12 University Irvine (CA) 15 23:17 PR 88.5
226 Jon Harlan 11 Del Campo (CA) 3 23:17 PR 88.5
227 Jose Victorino 12 Ramona (Riverside) (CA) 7 23:32 PR 87.6 146
228 Michael Latimer 11 California (Whittier) (CA) 3 23:39 PR 87.1
229 Adam Vasquez 11 Centennial (Corona) (CA) 5 23:53 PR 86.3 147
230 Sean Riveria 11 Elsinore (CA) 3 24:05 PR 85.6
231 Jules Sulpico 11 Santa Monica (CA) 16 24:12 PR 85.2
232 Peter Lin 11 University Irvine (CA) 16 24:14 PR 85.0
233 Philip Ku 12 University Irvine (CA) 17 24:14 PR 85.0
234 Robert Elliott 11 Ramona (Riverside) (CA) 8 24:16 PR 84.9
235 Adam Benker 12 El Dorado (CA) 4 24:45 PR 83.3 148
236 George Bonilla 11 Tustin (CA) 4 25:00 PR 82.4
237 Mitchell Sandoval 11 Damien (CA) 6 25:20 PR 81.3 149
238 Sergio Munguia 11 Bassett (CA) 1 25:35 PR 80.6
239 Benji Uy 11 Harvard-Westlake (CA) 2 25:35 PR 80.6
240 Alexander Jabbari 11 University Irvine (CA) 18 25:36 PR 80.5
241 Jordan Harris 11 El Dorado (CA) 5 25:51 PR 79.7 150
242 Edward Sun 12 Temple City (CA) 7 26:04 PR 79.1 151
243 Victor Jones 11 Elsinore (CA) 4 26:23 PR 78.1
244 Carlos Mendoza 11 Torrance (CA) 14 26:38 PR 77.4
245 Tony Zhang 11 Temple City (CA)
246 Mikael Villasenor 12 Fontana (CA)
Something wrong on this page? Report it →